Time;durP1;ratioP1;P1;durP2;ratioP2;P2;SDS_P1;SDS_P2;PMS_P1;PMS_P2;Temp;Humidity;BMP_temperature;BMP_pressure;BME280_temperature;BME280_humidity;BME280_pressure;Samples;Min_cycle;Max_cycle;Signal;HPM_P1;HPM_P2
2022/06/17 00:02:05;;;;;;;0.25;0.25;;;12.30;99.90;;;;;;4896302;29;20045;-85
2022/06/17 00:04:31;;;;;;;0.25;0.20;;;12.30;99.90;;;;;;4881054;29;20052;-85
2022/06/17 00:07:01;;;;;;;0.00;0.00;;;12.20;99.90;;;;;;4881796;29;20048;-85
2022/06/17 00:09:30;;;;;;;0.52;0.52;;;12.20;99.90;;;;;;4896824;29;20048;-85
2022/06/17 00:11:56;;;;;;;0.98;0.63;;;12.20;99.90;;;;;;4896831;29;20052;-84
2022/06/17 00:14:31;;;;;;;0.45;0.38;;;12.10;99.90;;;;;;4896214;29;20080;-84
2022/06/17 00:16:58;;;;;;;0.28;0.28;;;12.20;99.90;;;;;;4896990;29;20544;-84
2022/06/17 00:19:24;;;;;;;0.10;0.10;;;12.10;99.90;;;;;;4881390;29;20056;-87
2022/06/17 00:21:52;;;;;;;0.03;0.03;;;12.20;99.90;;;;;;4900813;29;20395;-86
2022/06/17 00:24:25;;;;;;;0.17;0.17;;;12.10;99.90;;;;;;4900748;29;20058;-87
2022/06/17 00:26:51;;;;;;;0.08;0.08;;;12.20;99.90;;;;;;4899664;29;20124;-87
2022/06/17 00:29:20;;;;;;;0.10;0.10;;;12.20;99.90;;;;;;4899801;29;20041;-87
2022/06/17 00:31:45;;;;;;;1.17;1.08;;;12.20;99.90;;;;;;4900282;29;20052;-87
2022/06/17 00:34:11;;;;;;;0.45;0.20;;;12.20;99.90;;;;;;4881762;29;20052;-87
2022/06/17 00:36:38;;;;;;;0.30;0.30;;;12.30;99.90;;;;;;4898068;29;20072;-86
2022/06/17 00:39:17;;;;;;;0.00;0.00;;;12.30;99.90;;;;;;4884221;29;20041;-86
2022/06/17 00:41:47;;;;;;;0.50;0.50;;;12.30;99.90;;;;;;4871880;29;20349;-86
2022/06/17 00:44:49;;;;;;;0.30;0.25;;;12.40;99.90;;;;;;4871505;29;20344;-86
2022/06/17 00:47:37;;;;;;;1.40;0.90;;;12.50;99.90;;;;;;4899368;29;20136;-86
2022/06/17 00:50:15;;;;;;;0.30;0.30;;;12.70;99.90;;;;;;4899663;29;20044;-86
2022/06/17 00:52:52;;;;;;;0.10;0.10;;;12.80;99.90;;;;;;4898589;29;20044;-87
2022/06/17 00:55:27;;;;;;;0.30;0.30;;;13.00;99.90;;;;;;4899842;29;20076;-87
2022/06/17 00:57:53;;;;;;;6.32;0.63;;;13.10;99.90;;;;;;4879704;29;20041;-87
2022/06/17 01:00:25;;;;;;;0.40;0.40;;;13.10;99.90;;;;;;4882014;29;20041;-88
2022/06/17 01:02:55;;;;;;;1.27;0.63;;;13.20;99.90;;;;;;4870261;29;20037;-87
2022/06/17 01:05:30;;;;;;;0.20;0.17;;;13.30;99.90;;;;;;4880488;29;20112;-87
2022/06/17 01:08:12;;;;;;;0.47;0.45;;;13.40;99.90;;;;;;4898757;29;20049;-87
2022/06/17 01:10:45;;;;;;;0.63;0.43;;;13.40;99.90;;;;;;4879759;29;20056;-85
2022/06/17 01:13:12;;;;;;;0.15;0.15;;;13.40;99.90;;;;;;4899358;29;20068;-86
2022/06/17 01:15:41;;;;;;;0.85;0.35;;;13.40;99.90;;;;;;4883316;29;20543;-86
2022/06/17 01:18:07;;;;;;;0.65;0.45;;;13.40;99.90;;;;;;4897718;29;20047;-86
2022/06/17 01:20:33;;;;;;;0.32;0.32;;;13.50;99.90;;;;;;4883053;29;20045;-86
2022/06/17 01:23:05;;;;;;;0.35;0.35;;;13.50;99.90;;;;;;4898472;29;20055;-86
2022/06/17 01:25:34;;;;;;;1.35;1.08;;;13.50;99.90;;;;;;4897942;29;20527;-86
2022/06/17 01:28:06;;;;;;;0.10;0.10;;;13.50;99.90;;;;;;4894207;29;20083;-86
2022/06/17 01:30:38;;;;;;;0.52;0.43;;;13.50;99.90;;;;;;4898024;29;20391;-86
2022/06/17 01:33:11;;;;;;;1.30;0.65;;;13.50;99.90;;;;;;4896926;29;20048;-86
2022/06/17 01:36:07;;;;;;;0.10;0.10;;;13.50;99.90;;;;;;4898701;29;20550;-86
2022/06/17 01:38:36;;;;;;;0.63;0.63;;;13.40;99.90;;;;;;4889698;29;20488;-86
2022/06/17 01:41:03;;;;;;;0.52;0.50;;;13.40;99.90;;;;;;4882466;29;20048;-86
2022/06/17 01:43:37;;;;;;;0.32;0.32;;;13.40;99.90;;;;;;4896021;29;20460;-86
2022/06/17 01:46:08;;;;;;;0.50;0.50;;;13.50;99.90;;;;;;4880457;29;20477;-86
2022/06/17 01:48:37;;;;;;;2.78;0.50;;;13.40;99.90;;;;;;4894847;29;20033;-86
2022/06/17 01:51:06;;;;;;;0.08;0.08;;;13.40;99.90;;;;;;4898589;29;20040;-86
2022/06/17 01:53:36;;;;;;;0.35;0.28;;;13.30;99.90;;;;;;4898838;29;20059;-86
2022/06/17 01:56:07;;;;;;;0.00;0.00;;;13.30;99.90;;;;;;4883251;29;20123;-86
2022/06/17 01:59:03;;;;;;;0.35;0.35;;;13.20;99.90;;;;;;4880831;29;20189;-86
2022/06/17 02:01:32;;;;;;;0.88;0.32;;;13.10;99.90;;;;;;4880365;29;20040;-87
2022/06/17 02:04:14;;;;;;;1.17;0.63;;;13.00;99.90;;;;;;4898034;29;20486;-87
2022/06/17 02:07:03;;;;;;;0.10;0.10;;;13.00;99.90;;;;;;4875561;29;20080;-87
2022/06/17 02:09:29;;;;;;;0.22;0.22;;;13.00;99.90;;;;;;4898349;29;20115;-88
2022/06/17 02:11:58;;;;;;;0.20;0.20;;;13.10;99.90;;;;;;4890413;29;20567;-87
2022/06/17 02:14:24;;;;;;;0.77;0.40;;;13.10;99.90;;;;;;4890576;29;20386;-88
2022/06/17 02:16:54;;;;;;;0.57;0.57;;;13.00;99.90;;;;;;4897863;29;20040;-84
2022/06/17 02:19:24;;;;;;;0.15;0.15;;;13.00;99.90;;;;;;4882601;29;20052;-84
2022/06/17 02:22:16;;;;;;;0.38;0.20;;;13.00;99.90;;;;;;4882216;29;20036;-84
2022/06/17 02:24:43;;;;;;;0.13;0.13;;;12.90;99.90;;;;;;4896180;29;20052;-84
2022/06/17 02:27:11;;;;;;;1.05;0.45;;;12.90;99.90;;;;;;4897433;29;20055;-84
2022/06/17 02:29:40;;;;;;;0.30;0.30;;;12.90;99.90;;;;;;4897823;29;20052;-84
2022/06/17 02:32:07;;;;;;;0.20;0.20;;;12.90;99.90;;;;;;4897181;29;20168;-84
2022/06/17 02:34:35;;;;;;;1.45;0.70;;;13.00;99.90;;;;;;4897841;29;20041;-86
2022/06/17 02:37:10;;;;;;;1.20;1.10;;;13.00;99.90;;;;;;4894798;29;20037;-86
2022/06/17 02:39:40;;;;;;;1.25;0.95;;;13.10;99.90;;;;;;4897756;29;20491;-86
2022/06/17 02:42:06;;;;;;;1.08;1.00;;;13.20;99.90;;;;;;4897353;29;20045;-86
2022/06/17 02:44:40;;;;;;;0.60;0.60;;;13.30;99.90;;;;;;4896535;29;20055;-86
2022/06/17 02:47:06;;;;;;;0.20;0.20;;;13.30;99.90;;;;;;4863643;29;20052;-86
2022/06/17 02:49:35;;;;;;;0.05;0.05;;;13.30;99.90;;;;;;4879313;29;20045;-86
2022/06/17 02:52:06;;;;;;;0.22;0.22;;;13.40;99.90;;;;;;4891375;29;20045;-86
2022/06/17 02:54:42;;;;;;;0.15;0.15;;;13.40;99.90;;;;;;4871367;29;20105;-86
2022/06/17 02:57:13;;;;;;;0.25;0.25;;;13.40;99.90;;;;;;4889903;29;20037;-86
2022/06/17 02:59:48;;;;;;;0.10;0.10;;;13.50;99.90;;;;;;4881925;29;20040;-86
2022/06/17 03:02:31;;;;;;;0.10;0.10;;;13.50;99.90;;;;;;4897086;29;20072;-86
2022/06/17 03:04:58;;;;;;;0.52;0.45;;;13.60;99.90;;;;;;4897375;29;20399;-86
2022/06/17 03:07:28;;;;;;;0.50;0.47;;;13.60;99.90;;;;;;4894581;29;20049;-87
2022/06/17 03:09:54;;;;;;;0.22;0.22;;;13.70;99.90;;;;;;4868864;29;20044;-87
2022/06/17 03:12:29;;;;;;;0.25;0.25;;;13.70;99.90;;;;;;4888885;29;20045;-87
2022/06/17 03:15:14;;;;;;;0.45;0.43;;;13.80;99.90;;;;;;4889902;29;20095;-88
2022/06/17 03:17:43;;;;;;;0.30;0.30;;;13.80;99.90;;;;;;4881135;29;20044;-87
2022/06/17 03:20:13;;;;;;;0.50;0.50;;;13.90;99.90;;;;;;4884577;29;20041;-88
2022/06/17 03:22:39;;;;;;;1.55;0.68;;;13.80;99.90;;;;;;4897552;29;20040;-86
2022/06/17 03:25:09;;;;;;;0.52;0.52;;;13.90;99.90;;;;;;4884731;29;20056;-86
2022/06/17 03:27:46;;;;;;;0.45;0.45;;;13.90;99.90;;;;;;4897591;29;20083;-86
2022/06/17 03:30:18;;;;;;;0.88;0.88;;;13.90;99.90;;;;;;4897226;29;20428;-86
2022/06/17 03:32:49;;;;;;;0.40;0.40;;;13.90;99.90;;;;;;4878193;29;20131;-86
2022/06/17 03:35:20;;;;;;;0.25;0.25;;;14.00;99.90;;;;;;4879383;29;20441;-86
2022/06/17 03:38:00;;;;;;;0.38;0.30;;;14.00;99.90;;;;;;4869216;29;20496;-86
2022/06/17 03:40:35;;;;;;;2.35;1.08;;;14.00;99.90;;;;;;4897010;29;20043;-84
2022/06/17 03:43:05;;;;;;;1.65;0.63;;;14.10;99.90;;;;;;4897216;29;20458;-84
2022/06/17 03:45:46;;;;;;;0.60;0.55;;;14.20;99.90;;;;;;4897030;29;20372;-84
2022/06/17 03:48:23;;;;;;;0.10;0.10;;;14.30;99.90;;;;;;4896341;29;20049;-84
2022/06/17 03:50:49;;;;;;;0.75;0.52;;;14.30;99.90;;;;;;4896860;29;20048;-84
2022/06/17 03:53:26;;;;;;;0.30;0.25;;;14.40;99.90;;;;;;4866515;29;20040;-84
2022/06/17 03:55:54;;;;;;;0.47;0.47;;;14.50;99.90;;;;;;4884244;29;20055;-86
2022/06/17 03:58:21;;;;;;;0.20;0.20;;;14.60;99.90;;;;;;4894431;29;20041;-86
2022/06/17 04:01:08;;;;;;;0.22;0.22;;;14.70;99.90;;;;;;4872750;29;20047;-86
2022/06/17 04:03:37;;;;;;;0.73;0.65;;;14.80;99.90;;;;;;4881788;29;20067;-86
2022/06/17 04:06:13;;;;;;;0.47;0.30;;;14.90;99.90;;;;;;4881739;29;20097;-86
2022/06/17 04:08:57;;;;;;;0.20;0.20;;;15.00;99.90;;;;;;4893837;29;20040;-86
2022/06/17 04:11:32;;;;;;;0.38;0.22;;;15.10;99.90;;;;;;4879247;29;20048;-86
2022/06/17 04:14:01;;;;;;;1.98;0.98;;;15.20;99.90;;;;;;4899987;29;20056;-87
2022/06/17 04:16:53;;;;;;;1.35;0.85;;;15.30;99.90;;;;;;4901279;29;20067;-87
2022/06/17 04:19:23;;;;;;;0.35;0.35;;;15.30;99.90;;;;;;4893216;29;20045;-87
2022/06/17 04:21:50;;;;;;;0.08;0.08;;;15.40;99.90;;;;;;4900391;29;20036;-87
2022/06/17 04:24:19;;;;;;;1.30;1.08;;;15.50;99.90;;;;;;4900215;29;20112;-87
2022/06/17 04:26:49;;;;;;;0.10;0.10;;;15.50;99.90;;;;;;4885307;29;20080;-87
2022/06/17 04:29:45;;;;;;;0.32;0.32;;;15.60;99.90;;;;;;4904250;29;20047;-88
2022/06/17 04:32:31;;;;;;;0.30;0.30;;;15.60;99.90;;;;;;4883157;29;20108;-87
2022/06/17 04:34:56;;;;;;;0.43;0.43;;;15.70;99.90;;;;;;4884452;29;20116;-88
2022/06/17 04:37:23;;;;;;;0.45;0.45;;;15.70;99.90;;;;;;4900138;29;20044;-87
2022/06/17 04:39:53;;;;;;;0.05;0.05;;;15.70;99.90;;;;;;4883621;29;20047;-87
2022/06/17 04:42:33;;;;;;;3.08;0.38;;;15.70;99.90;;;;;;4899784;29;20041;-87
2022/06/17 04:44:59;;;;;;;0.20;0.20;;;15.70;99.90;;;;;;4884432;29;20462;-87
2022/06/17 04:47:25;;;;;;;0.10;0.10;;;15.70;99.90;;;;;;4899949;29;20127;-87
2022/06/17 04:50:00;;;;;;;0.25;0.25;;;15.70;99.90;;;;;;4883874;29;20411;-87
2022/06/17 04:52:29;;;;;;;0.40;0.28;;;15.80;99.90;;;;;;4884504;29;20041;-87
2022/06/17 04:54:59;;;;;;;0.30;0.30;;;15.80;99.90;;;;;;4898204;29;20055;-87
2022/06/17 04:57:27;;;;;;;0.10;0.10;;;15.80;99.90;;;;;;4869984;29;20076;-88
2022/06/17 04:59:58;;;;;;;0.60;0.50;;;15.80;99.90;;;;;;4882890;29;20072;-87
2022/06/17 05:02:26;;;;;;;0.10;0.10;;;15.80;99.90;;;;;;4896508;29;20073;-87
2022/06/17 05:04:57;;;;;;;0.47;0.47;;;15.80;99.90;;;;;;4881389;29;20053;-87
2022/06/17 05:07:24;;;;;;;0.57;0.57;;;15.90;99.90;;;;;;4877891;29;20100;-87
2022/06/17 05:10:16;;;;;;;0.10;0.10;;;15.90;99.90;;;;;;4898794;29;20415;-87
2022/06/17 05:12:47;;;;;;;0.55;0.55;;;15.90;99.90;;;;;;4897992;29;20044;-88
2022/06/17 05:15:17;;;;;;;0.00;0.00;;;16.00;99.90;;;;;;4898928;29;20097;-88
2022/06/17 05:17:43;;;;;;;0.20;0.20;;;16.00;99.90;;;;;;4899454;29;20555;-87
2022/06/17 05:20:16;;;;;;;0.25;0.25;;;16.10;99.90;;;;;;4899323;29;20044;-88
2022/06/17 05:22:56;;;;;;;0.30;0.30;;;16.20;99.90;;;;;;4898713;29;20044;-87
2022/06/17 05:25:28;;;;;;;0.00;0.00;;;16.20;99.90;;;;;;4893881;29;20381;-88
2022/06/17 05:27:55;;;;;;;1.00;0.55;;;16.20;99.90;;;;;;4883531;29;20048;-87
2022/06/17 05:30:21;;;;;;;0.85;0.75;;;16.20;99.90;;;;;;4883529;29;20057;-88
2022/06/17 05:32:50;;;;;;;0.57;0.57;;;16.30;99.90;;;;;;4898589;29;20059;-88
2022/06/17 05:35:16;;;;;;;0.10;0.10;;;16.40;99.90;;;;;;4883157;29;20044;-88
2022/06/17 05:37:42;;;;;;;0.10;0.10;;;16.50;99.90;;;;;;4899277;29;20044;-85
2022/06/17 05:40:09;;;;;;;0.17;0.17;;;16.60;99.90;;;;;;4882391;29;20048;-85
2022/06/17 05:42:39;;;;;;;0.00;0.00;;;16.70;99.90;;;;;;4891151;29;20364;-85
2022/06/17 05:45:06;;;;;;;0.13;0.13;;;16.80;99.90;;;;;;4898957;29;20084;-85
2022/06/17 05:47:32;;;;;;;0.15;0.15;;;16.80;99.90;;;;;;4882995;29;20057;-85
2022/06/17 05:49:57;;;;;;;0.52;0.10;;;16.90;99.90;;;;;;4874380;29;20049;-85
2022/06/17 05:52:23;;;;;;;0.03;0.03;;;16.90;99.90;;;;;;4882455;29;20127;-85
2022/06/17 05:54:49;;;;;;;0.45;0.30;;;17.00;99.90;;;;;;4876182;29;20488;-87
2022/06/17 05:57:16;;;;;;;0.70;0.70;;;17.00;99.90;;;;;;4896355;29;20045;-86
2022/06/17 05:59:41;;;;;;;0.28;0.28;;;17.20;99.90;;;;;;4898877;29;20059;-86
2022/06/17 06:02:10;;;;;;;0.20;0.20;;;17.20;99.90;;;;;;4866046;29;20049;-86
2022/06/17 06:04:36;;;;;;;0.55;0.50;;;17.40;99.90;;;;;;4876755;29;20051;-87
2022/06/17 06:07:01;;;;;;;2.20;1.23;;;17.40;99.90;;;;;;4879911;29;20048;-87
2022/06/17 06:09:27;;;;;;;0.35;0.35;;;17.50;99.90;;;;;;4879766;29;20053;-85
2022/06/17 06:11:53;;;;;;;0.10;0.10;;;17.70;99.90;;;;;;4895569;29;20040;-85
2022/06/17 06:14:18;;;;;;;0.63;0.15;;;17.90;99.90;;;;;;4885745;29;20520;-85
2022/06/17 06:16:44;;;;;;;0.65;0.22;;;18.00;99.90;;;;;;4867268;29;20044;-85
2022/06/17 06:19:10;;;;;;;0.40;0.40;;;18.20;99.90;;;;;;4867236;29;20040;-85
2022/06/17 06:21:36;;;;;;;0.70;0.70;;;18.40;99.90;;;;;;4867614;29;20498;-85
2022/06/17 06:24:01;;;;;;;0.40;0.40;;;18.70;99.90;;;;;;4895386;29;20041;-85
2022/06/17 06:26:27;;;;;;;0.17;0.10;;;19.00;99.90;;;;;;4882903;29;20131;-88
2022/06/17 06:28:53;;;;;;;0.40;0.40;;;19.20;99.90;;;;;;4880126;29;20490;-88
2022/06/17 06:31:27;;;;;;;0.10;0.10;;;19.30;99.90;;;;;;4911541;29;20040;-88
2022/06/17 06:33:53;;;;;;;0.63;0.63;;;19.30;99.90;;;;;;4885654;29;20055;-88
2022/06/17 06:36:19;;;;;;;1.25;0.57;;;19.30;99.90;;;;;;4893225;29;20052;-88
2022/06/17 06:38:45;;;;;;;0.38;0.35;;;19.40;99.90;;;;;;4891712;29;20368;-88
2022/06/17 06:41:11;;;;;;;0.20;0.20;;;19.50;99.90;;;;;;4879056;29;20045;-88
2022/06/17 06:43:37;;;;;;;0.57;0.32;;;19.50;99.90;;;;;;4880141;29;20071;-88
2022/06/17 06:46:10;;;;;;;0.30;0.30;;;19.50;99.90;;;;;;4883127;29;20123;-87
2022/06/17 06:48:36;;;;;;;0.10;0.10;;;19.50;99.90;;;;;;4878668;29;20559;-87
2022/06/17 06:51:02;;;;;;;0.57;0.50;;;19.50;99.90;;;;;;4879504;29;20392;-87
2022/06/17 06:53:28;;;;;;;0.15;0.08;;;19.50;99.90;;;;;;4863758;29;20049;-88
2022/06/17 06:55:53;;;;;;;1.30;0.32;;;19.50;99.90;;;;;;4851329;29;20492;-88
2022/06/17 06:58:22;;;;;;;0.75;0.45;;;19.50;99.90;;;;;;4880719;29;20052;-88
2022/06/17 07:00:51;;;;;;;0.88;0.45;;;19.70;99.90;;;;;;4894081;29;20036;-87
2022/06/17 07:03:18;;;;;;;1.95;1.25;;;19.70;99.90;;;;;;4879045;29;20380;-87
2022/06/17 07:05:50;;;;;;;0.75;0.75;;;19.80;99.90;;;;;;4879878;29;20045;-87
2022/06/17 07:08:18;;;;;;;0.20;0.20;;;19.90;99.90;;;;;;4894877;29;20048;-87
2022/06/17 07:10:45;;;;;;;0.20;0.20;;;20.10;99.90;;;;;;4897476;29;20078;-87
2022/06/17 07:13:11;;;;;;;0.50;0.50;;;20.80;99.90;;;;;;4881948;29;20530;-87
2022/06/17 07:15:39;;;;;;;0.20;0.20;;;20.80;99.90;;;;;;4896353;29;20053;-87
2022/06/17 07:18:13;;;;;;;0.30;0.30;;;21.50;99.90;;;;;;4880458;29;20121;-88
2022/06/17 07:20:43;;;;;;;0.03;0.03;;;22.10;99.90;;;;;;4878838;29;20128;-88
2022/06/17 07:23:13;;;;;;;0.30;0.30;;;22.90;99.90;;;;;;4879541;29;20100;-87
2022/06/17 07:25:40;;;;;;;0.17;0.17;;;23.40;99.90;;;;;;4878804;29;20037;-87
2022/06/17 07:28:07;;;;;;;0.00;0.00;;;23.70;99.90;;;;;;4893572;29;20063;-87
2022/06/17 07:30:34;;;;;;;0.40;0.40;;;23.50;99.90;;;;;;4891461;29;20037;-87
2022/06/17 07:33:00;;;;;;;0.30;0.30;;;23.50;99.80;;;;;;4886019;29;20087;-87
2022/06/17 07:35:27;;;;;;;3.33;1.75;;;23.50;99.50;;;;;;4878928;29;20076;-87
2022/06/17 07:40:36;;;;;;;0.60;0.60;;;23.30;99.80;;;;;;4884291;29;20054;-88
2022/06/17 07:43:03;;;;;;;0.30;0.30;;;23.30;99.90;;;;;;4875659;23;20052;-85
2022/06/17 07:45:31;;;;;;;1.00;0.88;;;23.40;99.90;;;;;;4862809;29;20108;-85
2022/06/17 07:47:57;;;;;;;0.47;0.47;;;23.60;99.90;;;;;;4894122;29;20099;-85
2022/06/17 07:50:30;;;;;;;0.20;0.20;;;24.00;98.00;;;;;;4878165;29;20041;-87
2022/06/17 07:52:56;;;;;;;0.20;0.20;;;24.20;99.20;;;;;;4851768;29;20048;-86
2022/06/17 07:55:22;;;;;;;0.65;0.52;;;24.20;98.50;;;;;;4868828;29;20127;-87
2022/06/17 07:57:49;;;;;;;0.10;0.10;;;24.30;98.10;;;;;;4897188;29;20387;-86
2022/06/17 08:00:28;;;;;;;0.65;0.65;;;24.50;97.70;;;;;;4878196;29;20041;-86
2022/06/17 08:02:54;;;;;;;0.28;0.28;;;24.40;97.50;;;;;;4878224;29;20152;-86
2022/06/17 08:05:21;;;;;;;0.20;0.20;;;24.40;97.30;;;;;;4893273;29;20041;-86
2022/06/17 08:07:52;;;;;;;0.20;0.20;;;25.00;97.10;;;;;;4878152;29;20048;-87
2022/06/17 08:10:21;;;;;;;0.30;0.30;;;25.20;96.90;;;;;;4865306;29;20125;-87
2022/06/17 08:12:47;;;;;;;0.20;0.20;;;25.80;96.30;;;;;;4867083;29;20108;-88
2022/06/17 08:15:13;;;;;;;0.55;0.55;;;26.40;95.30;;;;;;4850059;29;20123;-87
2022/06/17 08:17:40;;;;;;;1.10;0.57;;;27.30;94.40;;;;;;4877920;29;20105;-87
2022/06/17 08:20:27;;;;;;;0.20;0.20;;;27.70;94.00;;;;;;4867032;29;20048;-87
2022/06/17 08:22:53;;;;;;;0.30;0.30;;;28.00;91.50;;;;;;4877511;29;20407;-87
2022/06/17 08:25:20;;;;;;;0.73;0.65;;;27.80;91.40;;;;;;4868554;29;20116;-87
2022/06/17 08:27:49;;;;;;;0.20;0.20;;;27.60;91.50;;;;;;4869896;29;20037;-87
2022/06/17 08:30:16;;;;;;;0.20;0.20;;;27.20;90.70;;;;;;4866653;29;20098;-86
2022/06/17 08:32:45;;;;;;;0.63;0.52;;;26.70;90.60;;;;;;4859347;29;20132;-86
2022/06/17 08:35:15;;;;;;;0.32;0.32;;;26.30;91.50;;;;;;4870009;29;20464;-86
2022/06/17 08:37:42;;;;;;;0.32;0.32;;;25.90;91.90;;;;;;4862237;29;20396;-86
2022/06/17 08:40:31;;;;;;;0.47;0.38;;;25.50;92.50;;;;;;4875727;29;20045;-86
2022/06/17 08:43:25;;;;;;;0.93;0.90;;;25.30;92.80;;;;;;4865784;29;20049;-86
2022/06/17 08:46:15;;;;;;;0.47;0.47;;;25.20;92.70;;;;;;4875955;29;20500;-86
2022/06/17 08:49:06;;;;;;;0.90;0.90;;;25.10;92.50;;;;;;4881833;29;20051;-86
2022/06/17 08:52:00;;;;;;;0.32;0.32;;;25.20;93.00;;;;;;4864939;29;20052;-86
2022/06/17 08:54:34;;;;;;;0.52;0.52;;;25.40;92.40;;;;;;4892931;29;20049;-88
2022/06/17 08:57:16;;;;;;;0.20;0.20;;;25.80;92.80;;;;;;4912594;29;20056;-85
2022/06/17 09:00:18;;;;;;;0.30;0.30;;;26.00;92.50;;;;;;4878254;29;20045;-86
2022/06/17 09:02:47;;;;;;;0.13;0.13;;;26.30;92.60;;;;;;4872130;29;20052;-86
2022/06/17 09:05:40;;;;;;;0.10;0.10;;;26.60;92.60;;;;;;4878448;29;20563;-86
2022/06/17 09:08:18;;;;;;;0.00;0.00;;;26.60;92.10;;;;;;4880487;29;20079;-86
2022/06/17 09:11:05;;;;;;;0.28;0.28;;;26.40;92.30;;;;;;4861868;29;20041;-85
2022/06/17 09:14:09;;;;;;;0.35;0.35;;;26.30;92.40;;;;;;4871956;29;20044;-88
2022/06/17 09:16:50;;;;;;;0.08;0.08;;;26.10;92.20;;;;;;4869450;29;20438;-88
2022/06/17 09:19:26;;;;;;;0.10;0.10;;;26.00;92.40;;;;;;4859887;29;20045;-88
2022/06/17 09:22:04;;;;;;;0.35;0.35;;;26.00;92.30;;;;;;4896541;29;20040;-88
2022/06/17 09:24:36;;;;;;;0.65;0.65;;;26.10;92.00;;;;;;4881000;29;20504;-88
2022/06/17 09:27:28;;;;;;;0.30;0.30;;;26.50;92.20;;;;;;4880737;29;20045;-87
2022/06/17 09:30:12;;;;;;;0.10;0.10;;;27.50;91.30;;;;;;4879790;29;20044;-86
2022/06/17 09:32:49;;;;;;;0.47;0.47;;;28.60;91.20;;;;;;4876462;29;20048;-86
2022/06/17 09:35:23;;;;;;;0.20;0.20;;;29.60;90.20;;;;;;4878950;29;20060;-87
2022/06/17 09:38:13;;;;;;;0.08;0.08;;;30.30;89.50;;;;;;4865959;29;20041;-87
2022/06/17 09:40:44;;;;;;;0.68;0.52;;;30.40;87.00;;;;;;4879958;29;20037;-87
2022/06/17 09:43:19;;;;;;;0.30;0.30;;;30.20;86.70;;;;;;4879624;29;20073;-86
2022/06/17 09:46:06;;;;;;;0.32;0.32;;;29.80;85.70;;;;;;4862228;29;20373;-87
2022/06/17 09:48:46;;;;;;;0.98;0.38;;;29.60;85.50;;;;;;4863001;29;20124;-87
2022/06/17 09:51:31;;;;;;;0.10;0.10;;;30.00;85.20;;;;;;4877798;29;20045;-87
2022/06/17 09:54:31;;;;;;;0.20;0.20;;;30.00;85.50;;;;;;4878797;29;20105;-87
2022/06/17 09:57:10;;;;;;;0.63;0.63;;;30.80;85.30;;;;;;4848368;29;20049;-86
2022/06/17 09:59:48;;;;;;;0.43;0.40;;;31.00;83.10;;;;;;4861796;29;20041;-87
2022/06/17 10:02:41;;;;;;;0.50;0.50;;;30.70;82.20;;;;;;4863581;29;20037;-87
2022/06/17 10:05:38;;;;;;;0.60;0.60;;;30.20;81.30;;;;;;4879578;29;20396;-86
2022/06/17 10:08:27;;;;;;;0.47;0.47;;;29.80;81.30;;;;;;4880781;29;20092;-86
2022/06/17 10:11:04;;;;;;;0.13;0.13;;;30.20;81.10;;;;;;4874305;29;20048;-86
2022/06/17 10:13:41;;;;;;;0.20;0.20;;;30.30;81.50;;;;;;4888455;29;20519;-87
2022/06/17 10:19:19;;;;;;;0.38;0.38;;;30.40;81.40;;;;;;4862433;29;20132;-90
2022/06/17 10:22:25;;;;;;;0.57;0.55;;;30.50;82.00;;;;;;4864232;29;20072;-90
2022/06/17 10:25:12;;;;;;;0.25;0.25;;;30.30;79.90;;;;;;4873995;29;20065;-90
2022/06/17 10:27:46;;;;;;;0.55;0.55;;;30.10;80.60;;;;;;4861827;29;20041;-90
2022/06/17 10:30:44;;;;;;;0.75;0.70;;;30.10;80.60;;;;;;4863966;29;20123;-90
2022/06/17 10:33:13;;;;;;;0.25;0.25;;;29.90;79.40;;;;;;4857410;29;20388;-89
2022/06/17 10:35:41;;;;;;;0.60;0.60;;;29.70;77.90;;;;;;4877687;29;20129;-90
2022/06/17 10:38:11;;;;;;;0.73;0.40;;;29.60;78.60;;;;;;4851505;29;20045;-87
2022/06/17 10:40:40;;;;;;;2.45;0.75;;;29.40;79.50;;;;;;4879288;29;20124;-87
2022/06/17 10:43:11;;;;;;;1.30;0.55;;;29.30;79.00;;;;;;4879571;29;20033;-87
2022/06/17 10:45:36;;;;;;;0.43;0.43;;;29.70;78.90;;;;;;4863611;29;20049;-87
2022/06/17 10:48:33;;;;;;;0.20;0.20;;;30.30;79.20;;;;;;4863907;29;20381;-87
2022/06/17 10:51:02;;;;;;;0.35;0.35;;;30.60;77.10;;;;;;4852404;29;20049;-87
2022/06/17 10:53:38;;;;;;;0.60;0.60;;;30.70;79.20;;;;;;4878977;29;20060;-89
2022/06/17 10:56:25;;;;;;;0.20;0.20;;;30.80;78.70;;;;;;4878359;29;20432;-89
2022/06/17 10:59:00;;;;;;;0.10;0.10;;;30.80;78.80;;;;;;4878955;29;20045;-86
2022/06/17 11:01:53;;;;;;;0.22;0.22;;;30.80;77.10;;;;;;4879222;29;20128;-87
2022/06/17 11:04:18;;;;;;;1.15;1.05;;;30.70;78.10;;;;;;4878216;29;20083;-87
2022/06/17 11:07:02;;;;;;;0.00;0.00;;;30.50;77.10;;;;;;4878755;29;20045;-86
2022/06/17 11:10:16;;;;;;;0.70;0.43;;;30.20;75.60;;;;;;4879333;29;20055;-87
2022/06/17 11:13:15;;;;;;;0.20;0.20;;;30.00;75.60;;;;;;4869961;29;20052;-87
2022/06/17 11:15:47;;;;;;;0.85;0.75;;;29.70;75.90;;;;;;4843937;29;20484;-87
2022/06/17 11:18:19;;;;;;;0.32;0.32;;;30.10;77.60;;;;;;4867234;29;20772;-87
2022/06/17 11:20:57;;;;;;;0.28;0.28;;;31.00;76.00;;;;;;4878535;29;20048;-88
2022/06/17 11:23:28;;;;;;;0.40;0.40;;;31.60;73.10;;;;;;4878430;29;20083;-88
2022/06/17 11:26:16;;;;;;;0.30;0.30;;;31.60;72.90;;;;;;4877957;29;20073;-87
2022/06/17 11:28:52;;;;;;;0.55;0.55;;;31.80;72.50;;;;;;4878444;29;20051;-86
2022/06/17 11:31:45;;;;;;;0.35;0.35;;;31.80;70.50;;;;;;4878575;29;20120;-86
2022/06/17 11:34:17;;;;;;;0.22;0.22;;;32.20;71.00;;;;;;4878751;29;20048;-87
2022/06/17 11:37:09;;;;;;;0.30;0.30;;;33.30;72.50;;;;;;4879165;29;20048;-86
2022/06/17 11:39:37;;;;;;;0.10;0.10;;;33.80;71.40;;;;;;4862746;29;20087;-86
2022/06/17 11:42:20;;;;;;;0.22;0.22;;;34.20;69.50;;;;;;4878224;29;20041;-84
2022/06/17 11:44:59;;;;;;;0.40;0.40;;;34.70;68.70;;;;;;4878026;29;20057;-85
2022/06/17 11:47:28;;;;;;;0.28;0.28;;;35.30;66.70;;;;;;4878288;29;20045;-84
2022/06/17 11:49:58;;;;;;;0.20;0.20;;;35.40;66.50;;;;;;4878062;29;20052;-84
2022/06/17 11:52:35;;;;;;;0.10;0.10;;;34.90;63.10;;;;;;4878308;29;20445;-85
2022/06/17 11:55:03;;;;;;;4.30;1.23;;;34.30;63.40;;;;;;4877917;29;20053;-84
2022/06/17 11:57:37;;;;;;;0.40;0.40;;;34.00;64.10;;;;;;4876712;29;20048;-85
2022/06/17 12:00:46;;;;;;;0.13;0.13;;;34.20;63.30;;;;;;4895558;29;20080;-84
2022/06/17 12:03:16;;;;;;;0.30;0.30;;;34.40;64.10;;;;;;4878044;29;20048;-84
2022/06/17 12:05:53;;;;;;;0.10;0.10;;;34.50;63.30;;;;;;4863405;29;20136;-84
2022/06/17 12:08:24;;;;;;;0.10;0.10;;;;;;;;;;4878269;29;20071;-84
2022/06/17 12:10:51;;;;;;;0.30;0.30;;;34.80;63.40;;;;;;4862543;29;20052;-84
2022/06/17 12:13:26;;;;;;;0.20;0.20;;;35.30;65.00;;;;;;4859305;29;20053;-84
2022/06/17 12:16:01;;;;;;;0.40;0.37;;;35.80;62.20;;;;;;4860236;29;20471;-84
2022/06/17 12:18:40;;;;;;;0.43;0.43;;;36.10;59.60;;;;;;4863114;29;20045;-84
2022/06/17 12:21:33;;;;;;;0.10;0.10;;;36.10;60.60;;;;;;4862881;29;20085;-84
2022/06/17 12:24:23;;;;;;;0.10;0.10;;;36.30;60.50;;;;;;4868237;29;20037;-84
2022/06/17 12:27:18;;;;;;;0.15;0.15;;;36.40;59.40;;;;;;4880743;29;20053;-84
2022/06/17 12:29:54;;;;;;;0.20;0.20;;;36.30;60.10;;;;;;4865043;29;20049;-84
2022/06/17 12:32:52;;;;;;;0.20;0.20;;;36.20;58.70;;;;;;4866041;29;20056;-84
2022/06/17 12:35:27;;;;;;;0.22;0.22;;;36.00;58.70;;;;;;4873314;29;20148;-83
2022/06/17 12:38:18;;;;;;;0.60;0.60;;;35.70;59.00;;;;;;4881210;29;20113;-84
2022/06/17 12:40:55;;;;;;;0.32;0.32;;;35.10;58.90;;;;;;4872517;29;20049;-83
2022/06/17 12:43:46;;;;;;;1.17;0.32;;;34.70;59.70;;;;;;4880914;29;20056;-84
2022/06/17 12:46:26;;;;;;;0.10;0.10;;;34.30;59.60;;;;;;4865593;29;20457;-84
2022/06/17 12:55:07;;;;;;;2.33;0.57;;;32.50;60.80;;;;;;4880713;29;20564;-84
2022/06/17 12:58:10;;;;;;;0.25;0.25;;;32.00;61.40;;;;;;4865614;29;20044;-84
2022/06/17 13:00:44;;;;;;;0.22;0.22;;;31.70;60.80;;;;;;4881044;29;20077;-84
2022/06/17 13:03:39;;;;;;;0.20;0.20;;;31.60;62.20;;;;;;4880727;29;20051;-84
2022/06/17 13:06:21;;;;;;;0.38;0.35;;;31.50;62.30;;;;;;4865267;29;20045;-84
2022/06/17 13:08:58;;;;;;;0.40;0.40;;;31.40;61.50;;;;;;4880615;29;20084;-84
2022/06/17 13:11:50;;;;;;;0.20;0.20;;;31.30;62.40;;;;;;4865417;29;20115;-84
2022/06/17 13:14:31;;;;;;;0.10;0.10;;;31.70;62.70;;;;;;4836852;29;20045;-84
2022/06/17 13:17:12;;;;;;;0.43;0.43;;;32.30;62.00;;;;;;4862336;29;20050;-84
2022/06/17 13:19:55;;;;;;;1.00;0.77;;;32.60;62.40;;;;;;4861826;29;20052;-84
2022/06/17 13:22:47;;;;;;;0.10;0.10;;;32.70;61.60;;;;;;4861011;29;20041;-84
2022/06/17 13:25:38;;;;;;;0.47;0.47;;;32.50;61.80;;;;;;4863135;29;20053;-84
2022/06/17 13:28:24;;;;;;;0.20;0.20;;;32.10;60.10;;;;;;4880004;29;20147;-84
2022/06/17 13:30:56;;;;;;;0.57;0.50;;;31.90;60.70;;;;;;4878573;29;20083;-84
2022/06/17 13:33:36;;;;;;;0.13;0.13;;;31.80;60.90;;;;;;4880478;29;20044;-84
2022/06/17 13:36:11;;;;;;;0.47;0.47;;;32.00;64.20;;;;;;4879627;29;20500;-84
2022/06/17 13:39:04;;;;;;;0.10;0.10;;;32.20;61.30;;;;;;4880069;29;20527;-84